Hauptseite
METAR-TAF:

METAR-TAF

Flughäfen :

Chengdu, China

Flughafen Chengdu-Shuangliu

Breite: 30-40N, Länge: 104-01E, Höhe: 508 m

Beobachtung

Neuester Wetterbericht von vor 1 Stunde und 6 Minuten, um 13:00 UTC
Wind 2 kt aus unterschiedlichen Richtungen
Temperatur 13°C
Luftfeuchtigkeit 62%
Luftdruck 1026 hPa
Sichtweite 10 km oder mehr
keine Wolken unter 1500 m und keine Kumulonimbus oder Gewitterwolken

METAR: ZUUU 241300Z VRB01MPS CAVOK 13/06 Q1026 NOSIG

Zeit: 22:06 (14:06 UTC)

Prognose

Neuester Wetterbericht von vor 6 Stunden und 2 Minuten, um 08:04 UTC
Gültige Prognose vom 24 um 12 UTC bis 25 um 12 UTC
Wind 6 kt aus Nord/Nordost
Sichtweite: 5000 m
Aufgelockert bewölkt in der Höhe von 5000 ft
feuchter Dunst

TAF: ZUUU 240804Z 2412/2512 03003MPS 5000 BR SCT050 TX17/2507Z TN10/2423Z

Wetterbeobachtungen und Prognosen von mehr als 4000 Flughäfen (METAR und TAF Bericht).

Die verfügbaren Stationen werden durch gelbe und rote Markierungen auf der Karte dargestellt.

Führen Sie die Maus auf sie, um den Namen der Station zu sehen.

Darauf klicken, um die Beobachtung von Wetterbeobachtungen und Prognosen zu sehen.

Um die Karte zu ändern : klicken Sie auf den grünen Tasten mit einem schwarzen Kreuz Zum Vergrößern, auf den grünen Button mit einem Gedankenstrich zu verkleinern, oder auf die grünen Pfeile für benachbarte Karten.


METAR-TAF: